»·PEaware :: N888L KPSP-KSNA

N888L :: KPSP-KSNA

FLIGHT INFORMATION

Flight Status: Arrived
Operator: Privately registered:
United States
More flights under this callsign
Pilot: Ian H. (8262)
Aircraft: Unknown
(0)
More flights by this aircraft type
Origin: KPSP Palm Springs Intl
United States
Destination: KSNA John Wayne-Orange Co
United States
More flights between these airports :: More routes between these airports
Route: CATH1 PSP V388 PDZ PDZ270/013 V363 POXKU V8 SLI
File this flight plan on PilotEdge
Remarks:
Altitude:
(Current/Filed)
10,000ft
Speed:
(Current/Filed)
150kts
Departed: 08-May-19 06:05 PM
Arrived: 08-May-19 06:46 PM
Distance/Time
Traveled:
69nm/0:41
Distance/Time
To Go:
Arrived

Flight Plot

Page will automatically refresh every two minutes.


Map Options




Map Legend


Flown Route
Filed Route
Departure Airport
Arrival Airport
Navaid (VOR, NDB)
Fix

Horizontal Profiles

Position Reports

Time Latitude Longitude Heading Altitude Ground
Speed
08-May-19 17:27 33.820337 -116.495268 223 390ft 0kts
08-May-19 17:28 33.820337 -116.495268 223 390ft 0kts
08-May-19 17:28 33.820337 -116.495268 223 390ft 0kts
08-May-19 17:30 33.820337 -116.495268 223 390ft 0kts
08-May-19 17:31 33.820337 -116.495268 223 390ft 0kts
08-May-19 17:31 33.820337 -116.495268 223 390ft 0kts
08-May-19 17:33 33.820337 -116.495268 223 390ft 0kts
08-May-19 17:33 33.820337 -116.495268 223 390ft 0kts
08-May-19 17:34 33.820337 -116.495268 223 390ft 0kts
08-May-19 17:35 33.820335 -116.495271 223 390ft 0kts
08-May-19 17:36 33.820335 -116.495271 223 390ft 0kts
08-May-19 17:38 33.820335 -116.495271 223 390ft 0kts
08-May-19 17:38 33.820335 -116.495271 223 390ft 0kts
08-May-19 17:39 33.820332 -116.495274 223 390ft 0kts
08-May-19 17:40 33.820332 -116.495274 223 390ft 0kts
08-May-19 17:41 33.820332 -116.495274 223 390ft 0kts
08-May-19 17:42 33.820332 -116.495274 223 390ft 0kts
08-May-19 17:43 33.820332 -116.495274 223 390ft 0kts
08-May-19 17:44 33.820332 -116.495274 223 390ft 0kts
08-May-19 17:45 33.820332 -116.495274 223 390ft 0kts
08-May-19 17:46 33.820332 -116.495274 223 390ft 0kts
08-May-19 17:47 33.820332 -116.495274 223 390ft 0kts
08-May-19 17:48 33.820332 -116.495274 223 390ft 0kts
08-May-19 17:49 33.820332 -116.495274 223 390ft 0kts
08-May-19 17:50 33.820332 -116.495274 223 390ft 0kts
08-May-19 17:51 33.820332 -116.495274 223 390ft 0kts
08-May-19 17:52 33.820332 -116.495274 223 390ft 0kts
08-May-19 17:53 33.820332 -116.495274 223 390ft 0kts
08-May-19 17:54 33.820332 -116.495274 223 390ft 0kts
08-May-19 17:55 33.820332 -116.495274 223 390ft 0kts
08-May-19 17:56 33.820332 -116.495274 223 390ft 0kts
08-May-19 17:57 33.820332 -116.495274 223 390ft 0kts
08-May-19 17:58 33.820332 -116.495274 223 390ft 0kts
08-May-19 17:59 33.820069 -116.495668 233 391ft 7kts
08-May-19 18:00 33.819388 -116.496805 240 392ft 0kts
08-May-19 18:01 33.819974 -116.499052 330 397ft 16kts
08-May-19 18:02 33.821468 -116.500383 339 400ft 0kts
08-May-19 18:03 33.824391 -116.500093 323 404ft 0kts
08-May-19 18:04 33.827056 -116.502417 318 411ft 66kts
08-May-19 18:05 33.839817 -116.522651 319 1534ft 95kts
08-May-19 18:06 33.861051 -116.545908 321 2874ft 105kts
08-May-19 18:07 33.882637 -116.570172 327 4180ft 105kts
08-May-19 18:08 33.893436 -116.551604 116 5337ft 110kts
08-May-19 18:09 33.884609 -116.516880 101 6437ft 110kts
08-May-19 18:10 33.877783 -116.480666 98 7511ft 113kts
08-May-19 18:11 33.895291 -116.473199 289 8491ft 118kts
08-May-19 18:12 33.902493 -116.512211 286 9428ft 120kts
08-May-19 18:13 33.910249 -116.551963 286 10167ft 132kts
08-May-19 18:14 33.920361 -116.601564 285 10166ft 164kts
08-May-19 18:15 33.931254 -116.655847 285 10164ft 166kts
08-May-19 18:16 33.941886 -116.709357 286 10164ft 162kts
08-May-19 18:17 33.947355 -116.762109 269 10163ft 158kts
08-May-19 18:18 33.945354 -116.813972 270 10164ft 151kts
08-May-19 18:19 33.943537 -116.863580 270 10162ft 145kts
08-May-19 18:20 33.941800 -116.911185 269 10123ft 142kts
08-May-19 18:21 33.940070 -116.958933 270 10007ft 137kts
08-May-19 18:22 33.938339 -117.003276 265 10005ft 128kts
08-May-19 18:23 33.936109 -117.043597 271 10007ft 118kts
08-May-19 18:24 33.935285 -117.086657 270 10018ft 150kts
08-May-19 18:25 33.933389 -117.141584 269 10010ft 174kts
08-May-19 18:26 33.931153 -117.200056 268 10009ft 179kts
08-May-19 18:27 33.928831 -117.259920 269 10008ft 180kts
08-May-19 18:28 33.926418 -117.319938 268 10009ft 178kts
08-May-19 18:29 33.924044 -117.379723 268 9743ft 187kts
08-May-19 18:30 33.921354 -117.445192 268 9051ft 202kts
08-May-19 18:31 33.918646 -117.510553 268 8244ft 192kts
08-May-19 18:32 33.926216 -117.570354 283 8007ft 167kts
08-May-19 18:33 33.935381 -117.625345 284 7591ft 174kts
08-May-19 18:34 33.942477 -117.683368 267 6990ft 174kts
08-May-19 18:35 33.951430 -117.736978 295 6346ft 170kts
08-May-19 18:36 33.959846 -117.792679 243 5544ft 176kts
08-May-19 18:37 33.920310 -117.804932 118 4745ft 168kts
08-May-19 18:38 33.898088 -117.756524 151 3945ft 171kts
08-May-19 18:39 33.855004 -117.754916 199 3128ft 146kts
08-May-19 18:40 33.824467 -117.774476 206 3017ft 122kts
08-May-19 18:41 33.785010 -117.799524 208 2438ft 181kts
08-May-19 18:42 33.746803 -117.823851 206 1523ft 131kts
08-May-19 18:43 33.717226 -117.842604 207 871ft 109kts
08-May-19 18:44 33.691547 -117.858687 214 405ft 110kts
08-May-19 18:45 33.675398 -117.868776 159 48ft 8kts

Navigation Log

Ident Type
Flight plan parsing failed, navigation log unavailable